sensor_id;sensor_type;location;lat;lon;timestamp;P1;durP1;ratioP1;P2;durP2;ratioP2
6193;SDS011;3130;41.564;23.280;2024-02-15T00:00:29;10.17;;;7.70;;
6193;SDS011;3130;41.564;23.280;2024-02-15T00:02:56;11.20;;;8.97;;
6193;SDS011;3130;41.564;23.280;2024-02-15T00:05:23;11.87;;;8.50;;
6193;SDS011;3130;41.564;23.280;2024-02-15T00:07:51;10.57;;;8.57;;
6193;SDS011;3130;41.564;23.280;2024-02-15T00:10:19;9.97;;;8.93;;
6193;SDS011;3130;41.564;23.280;2024-02-15T00:12:50;11.57;;;9.37;;
6193;SDS011;3130;41.564;23.280;2024-02-15T00:15:18;10.93;;;7.50;;
6193;SDS011;3130;41.564;23.280;2024-02-15T00:17:45;9.87;;;7.70;;
6193;SDS011;3130;41.564;23.280;2024-02-15T00:20:13;8.37;;;7.40;;
6193;SDS011;3130;41.564;23.280;2024-02-15T00:22:41;9.30;;;8.23;;
6193;SDS011;3130;41.564;23.280;2024-02-15T00:25:10;10.77;;;9.30;;
6193;SDS011;3130;41.564;23.280;2024-02-15T00:27:39;8.83;;;6.97;;
6193;SDS011;3130;41.564;23.280;2024-02-15T00:30:08;8.83;;;7.57;;
6193;SDS011;3130;41.564;23.280;2024-02-15T00:32:35;10.27;;;7.77;;
6193;SDS011;3130;41.564;23.280;2024-02-15T00:35:03;11.87;;;7.47;;
6193;SDS011;3130;41.564;23.280;2024-02-15T00:37:33;9.40;;;7.50;;
6193;SDS011;3130;41.564;23.280;2024-02-15T00:40:00;9.90;;;8.17;;
6193;SDS011;3130;41.564;23.280;2024-02-15T00:42:30;10.50;;;7.67;;
6193;SDS011;3130;41.564;23.280;2024-02-15T00:44:58;9.53;;;7.57;;
6193;SDS011;3130;41.564;23.280;2024-02-15T00:47:25;10.40;;;8.40;;
6193;SDS011;3130;41.564;23.280;2024-02-15T00:49:53;10.47;;;8.07;;
6193;SDS011;3130;41.564;23.280;2024-02-15T00:52:20;10.90;;;7.77;;
6193;SDS011;3130;41.564;23.280;2024-02-15T00:54:47;10.87;;;7.73;;
6193;SDS011;3130;41.564;23.280;2024-02-15T00:57:15;10.63;;;8.43;;
6193;SDS011;3130;41.564;23.280;2024-02-15T00:59:44;10.03;;;7.90;;
6193;SDS011;3130;41.564;23.280;2024-02-15T01:02:11;13.63;;;8.90;;
6193;SDS011;3130;41.564;23.280;2024-02-15T01:04:38;14.43;;;7.63;;
6193;SDS011;3130;41.564;23.280;2024-02-15T01:07:05;10.70;;;8.50;;
6193;SDS011;3130;41.564;23.280;2024-02-15T01:09:33;11.77;;;8.40;;
6193;SDS011;3130;41.564;23.280;2024-02-15T01:12:00;10.73;;;7.20;;
6193;SDS011;3130;41.564;23.280;2024-02-15T01:14:28;13.03;;;8.97;;
6193;SDS011;3130;41.564;23.280;2024-02-15T01:16:57;13.83;;;9.73;;
6193;SDS011;3130;41.564;23.280;2024-02-15T01:19:24;8.93;;;7.27;;
6193;SDS011;3130;41.564;23.280;2024-02-15T01:21:51;11.27;;;7.50;;
6193;SDS011;3130;41.564;23.280;2024-02-15T01:24:18;10.83;;;8.33;;
6193;SDS011;3130;41.564;23.280;2024-02-15T01:26:45;13.43;;;9.03;;
6193;SDS011;3130;41.564;23.280;2024-02-15T01:29:13;12.27;;;8.20;;
6193;SDS011;3130;41.564;23.280;2024-02-15T01:31:40;13.03;;;8.53;;
6193;SDS011;3130;41.564;23.280;2024-02-15T01:34:08;13.83;;;9.33;;
6193;SDS011;3130;41.564;23.280;2024-02-15T01:36:35;12.43;;;9.40;;
6193;SDS011;3130;41.564;23.280;2024-02-15T01:39:02;11.40;;;9.60;;
6193;SDS011;3130;41.564;23.280;2024-02-15T01:41:29;10.47;;;8.37;;
6193;SDS011;3130;41.564;23.280;2024-02-15T01:43:56;13.50;;;9.97;;
6193;SDS011;3130;41.564;23.280;2024-02-15T01:46:23;12.73;;;8.30;;
6193;SDS011;3130;41.564;23.280;2024-02-15T01:48:51;10.37;;;7.80;;
6193;SDS011;3130;41.564;23.280;2024-02-15T01:51:19;10.93;;;8.57;;
6193;SDS011;3130;41.564;23.280;2024-02-15T01:53:46;11.17;;;8.70;;
6193;SDS011;3130;41.564;23.280;2024-02-15T01:56:13;13.33;;;8.67;;
6193;SDS011;3130;41.564;23.280;2024-02-15T01:58:57;11.87;;;8.57;;
6193;SDS011;3130;41.564;23.280;2024-02-15T02:01:24;11.80;;;9.07;;
6193;SDS011;3130;41.564;23.280;2024-02-15T02:03:52;11.77;;;9.47;;
6193;SDS011;3130;41.564;23.280;2024-02-15T02:06:20;9.20;;;8.27;;
6193;SDS011;3130;41.564;23.280;2024-02-15T02:08:48;11.13;;;8.97;;
6193;SDS011;3130;41.564;23.280;2024-02-15T02:11:14;12.00;;;9.83;;
6193;SDS011;3130;41.564;23.280;2024-02-15T02:13:41;14.33;;;10.03;;
6193;SDS011;3130;41.564;23.280;2024-02-15T02:18:50;16.00;;;7.83;;
6193;SDS011;3130;41.564;23.280;2024-02-15T02:21:16;9.40;;;8.37;;
6193;SDS011;3130;41.564;23.280;2024-02-15T02:23:45;11.57;;;9.67;;
6193;SDS011;3130;41.564;23.280;2024-02-15T02:26:16;10.00;;;7.83;;
6193;SDS011;3130;41.564;23.280;2024-02-15T02:28:43;10.07;;;8.47;;
6193;SDS011;3130;41.564;23.280;2024-02-15T02:31:10;9.73;;;7.70;;
6193;SDS011;3130;41.564;23.280;2024-02-15T02:33:37;10.27;;;9.00;;
6193;SDS011;3130;41.564;23.280;2024-02-15T02:36:04;9.90;;;7.97;;
6193;SDS011;3130;41.564;23.280;2024-02-15T02:38:34;11.47;;;9.23;;
6193;SDS011;3130;41.564;23.280;2024-02-15T02:41:03;11.80;;;8.07;;
6193;SDS011;3130;41.564;23.280;2024-02-15T02:43:31;12.27;;;9.03;;
6193;SDS011;3130;41.564;23.280;2024-02-15T02:45:58;11.33;;;7.73;;
6193;SDS011;3130;41.564;23.280;2024-02-15T02:48:25;10.73;;;8.50;;
6193;SDS011;3130;41.564;23.280;2024-02-15T02:50:52;10.33;;;8.73;;
6193;SDS011;3130;41.564;23.280;2024-02-15T02:53:19;10.93;;;8.73;;
6193;SDS011;3130;41.564;23.280;2024-02-15T02:55:46;12.17;;;9.30;;
6193;SDS011;3130;41.564;23.280;2024-02-15T02:58:12;9.57;;;8.43;;
6193;SDS011;3130;41.564;23.280;2024-02-15T03:00:41;13.03;;;9.27;;
6193;SDS011;3130;41.564;23.280;2024-02-15T03:03:08;12.67;;;7.77;;
6193;SDS011;3130;41.564;23.280;2024-02-15T03:05:34;12.27;;;8.63;;
6193;SDS011;3130;41.564;23.280;2024-02-15T03:08:01;11.57;;;9.27;;
6193;SDS011;3130;41.564;23.280;2024-02-15T03:10:28;11.23;;;8.03;;
6193;SDS011;3130;41.564;23.280;2024-02-15T03:12:55;19.17;;;9.50;;
6193;SDS011;3130;41.564;23.280;2024-02-15T03:15:23;13.83;;;10.20;;
6193;SDS011;3130;41.564;23.280;2024-02-15T03:17:51;14.57;;;11.43;;
6193;SDS011;3130;41.564;23.280;2024-02-15T03:20:18;14.33;;;9.30;;
6193;SDS011;3130;41.564;23.280;2024-02-15T03:22:52;11.77;;;8.17;;
6193;SDS011;3130;41.564;23.280;2024-02-15T03:25:19;11.90;;;8.83;;
6193;SDS011;3130;41.564;23.280;2024-02-15T03:27:49;11.90;;;8.50;;
6193;SDS011;3130;41.564;23.280;2024-02-15T03:30:17;13.20;;;8.10;;
6193;SDS011;3130;41.564;23.280;2024-02-15T03:32:44;9.33;;;7.37;;
6193;SDS011;3130;41.564;23.280;2024-02-15T03:35:13;12.60;;;8.83;;
6193;SDS011;3130;41.564;23.280;2024-02-15T03:37:39;11.30;;;8.00;;
6193;SDS011;3130;41.564;23.280;2024-02-15T03:40:07;14.27;;;7.93;;
6193;SDS011;3130;41.564;23.280;2024-02-15T03:42:34;13.03;;;7.57;;
6193;SDS011;3130;41.564;23.280;2024-02-15T03:45:02;8.47;;;7.50;;
6193;SDS011;3130;41.564;23.280;2024-02-15T03:47:29;11.30;;;7.37;;
6193;SDS011;3130;41.564;23.280;2024-02-15T03:49:55;9.93;;;8.40;;
6193;SDS011;3130;41.564;23.280;2024-02-15T03:52:24;10.27;;;7.80;;
6193;SDS011;3130;41.564;23.280;2024-02-15T03:54:51;9.80;;;7.30;;
6193;SDS011;3130;41.564;23.280;2024-02-15T03:57:19;9.27;;;8.17;;
6193;SDS011;3130;41.564;23.280;2024-02-15T03:59:46;10.13;;;7.67;;
6193;SDS011;3130;41.564;23.280;2024-02-15T04:02:15;11.30;;;8.07;;
6193;SDS011;3130;41.564;23.280;2024-02-15T04:04:43;11.07;;;7.87;;
6193;SDS011;3130;41.564;23.280;2024-02-15T04:07:12;9.87;;;7.50;;
6193;SDS011;3130;41.564;23.280;2024-02-15T04:09:41;11.47;;;9.03;;
6193;SDS011;3130;41.564;23.280;2024-02-15T04:12:08;13.87;;;8.43;;
6193;SDS011;3130;41.564;23.280;2024-02-15T04:14:35;19.30;;;12.10;;
6193;SDS011;3130;41.564;23.280;2024-02-15T04:17:03;11.30;;;8.40;;
6193;SDS011;3130;41.564;23.280;2024-02-15T04:19:30;13.53;;;9.80;;
6193;SDS011;3130;41.564;23.280;2024-02-15T04:21:58;15.37;;;9.17;;
6193;SDS011;3130;41.564;23.280;2024-02-15T04:24:25;12.60;;;9.00;;
6193;SDS011;3130;41.564;23.280;2024-02-15T04:26:54;18.10;;;11.17;;
6193;SDS011;3130;41.564;23.280;2024-02-15T04:29:21;14.20;;;9.40;;
6193;SDS011;3130;41.564;23.280;2024-02-15T04:31:48;15.57;;;11.33;;
6193;SDS011;3130;41.564;23.280;2024-02-15T04:34:15;11.70;;;8.83;;
6193;SDS011;3130;41.564;23.280;2024-02-15T04:36:43;17.97;;;8.67;;
6193;SDS011;3130;41.564;23.280;2024-02-15T04:39:10;12.00;;;7.67;;
6193;SDS011;3130;41.564;23.280;2024-02-15T04:41:48;10.17;;;7.87;;
6193;SDS011;3130;41.564;23.280;2024-02-15T04:44:17;13.00;;;7.83;;
6193;SDS011;3130;41.564;23.280;2024-02-15T04:46:45;12.40;;;8.07;;
6193;SDS011;3130;41.564;23.280;2024-02-15T04:49:12;12.80;;;7.23;;
6193;SDS011;3130;41.564;23.280;2024-02-15T04:51:39;11.13;;;8.13;;
6193;SDS011;3130;41.564;23.280;2024-02-15T04:54:07;10.40;;;7.53;;
6193;SDS011;3130;41.564;23.280;2024-02-15T04:56:38;12.63;;;7.70;;
6193;SDS011;3130;41.564;23.280;2024-02-15T04:59:05;14.77;;;8.93;;
6193;SDS011;3130;41.564;23.280;2024-02-15T05:01:35;18.13;;;10.33;;
6193;SDS011;3130;41.564;23.280;2024-02-15T05:04:02;11.40;;;9.30;;
6193;SDS011;3130;41.564;23.280;2024-02-15T05:06:32;14.17;;;9.53;;
6193;SDS011;3130;41.564;23.280;2024-02-15T05:09:01;12.23;;;8.17;;
6193;SDS011;3130;41.564;23.280;2024-02-15T05:11:32;16.90;;;11.33;;
6193;SDS011;3130;41.564;23.280;2024-02-15T05:14:00;11.13;;;8.40;;
6193;SDS011;3130;41.564;23.280;2024-02-15T05:16:28;16.50;;;11.23;;
6193;SDS011;3130;41.564;23.280;2024-02-15T05:19:08;12.30;;;8.43;;
6193;SDS011;3130;41.564;23.280;2024-02-15T05:21:39;13.73;;;9.60;;
6193;SDS011;3130;41.564;23.280;2024-02-15T05:24:10;14.13;;;8.90;;
6193;SDS011;3130;41.564;23.280;2024-02-15T05:26:37;12.07;;;10.13;;
6193;SDS011;3130;41.564;23.280;2024-02-15T05:29:03;13.63;;;9.53;;
6193;SDS011;3130;41.564;23.280;2024-02-15T05:31:31;14.67;;;8.87;;
6193;SDS011;3130;41.564;23.280;2024-02-15T05:34:05;13.80;;;9.23;;
6193;SDS011;3130;41.564;23.280;2024-02-15T05:36:33;19.03;;;10.17;;
6193;SDS011;3130;41.564;23.280;2024-02-15T05:39:00;12.30;;;9.50;;
6193;SDS011;3130;41.564;23.280;2024-02-15T05:41:28;15.70;;;10.03;;
6193;SDS011;3130;41.564;23.280;2024-02-15T05:43:55;17.77;;;10.43;;
6193;SDS011;3130;41.564;23.280;2024-02-15T05:46:23;12.87;;;10.03;;
6193;SDS011;3130;41.564;23.280;2024-02-15T05:48:50;14.47;;;9.27;;
6193;SDS011;3130;41.564;23.280;2024-02-15T05:51:18;13.50;;;10.17;;
6193;SDS011;3130;41.564;23.280;2024-02-15T05:53:46;15.83;;;9.33;;
6193;SDS011;3130;41.564;23.280;2024-02-15T05:56:14;17.23;;;10.10;;
6193;SDS011;3130;41.564;23.280;2024-02-15T05:58:41;18.93;;;11.00;;
6193;SDS011;3130;41.564;23.280;2024-02-15T06:01:08;18.93;;;11.40;;
6193;SDS011;3130;41.564;23.280;2024-02-15T06:03:37;17.67;;;12.17;;
6193;SDS011;3130;41.564;23.280;2024-02-15T06:06:05;18.87;;;11.23;;
6193;SDS011;3130;41.564;23.280;2024-02-15T06:08:34;15.80;;;11.70;;
6193;SDS011;3130;41.564;23.280;2024-02-15T06:11:02;13.37;;;11.47;;
6193;SDS011;3130;41.564;23.280;2024-02-15T06:13:29;19.00;;;11.33;;
6193;SDS011;3130;41.564;23.280;2024-02-15T06:15:56;15.93;;;11.30;;
6193;SDS011;3130;41.564;23.280;2024-02-15T06:18:23;15.57;;;11.63;;
6193;SDS011;3130;41.564;23.280;2024-02-15T06:20:51;18.80;;;12.93;;
6193;SDS011;3130;41.564;23.280;2024-02-15T06:23:18;19.53;;;13.60;;
6193;SDS011;3130;41.564;23.280;2024-02-15T06:25:48;21.60;;;14.20;;
6193;SDS011;3130;41.564;23.280;2024-02-15T06:28:18;17.27;;;10.70;;
6193;SDS011;3130;41.564;23.280;2024-02-15T06:31:06;16.80;;;10.97;;
6193;SDS011;3130;41.564;23.280;2024-02-15T06:33:50;29.97;;;19.20;;
6193;SDS011;3130;41.564;23.280;2024-02-15T06:36:39;26.37;;;16.07;;
6193;SDS011;3130;41.564;23.280;2024-02-15T06:39:23;24.93;;;18.03;;
6193;SDS011;3130;41.564;23.280;2024-02-15T06:42:07;24.77;;;16.20;;
6193;SDS011;3130;41.564;23.280;2024-02-15T06:44:35;27.83;;;16.97;;
6193;SDS011;3130;41.564;23.280;2024-02-15T06:47:02;26.40;;;18.67;;
6193;SDS011;3130;41.564;23.280;2024-02-15T06:49:29;38.43;;;23.80;;
6193;SDS011;3130;41.564;23.280;2024-02-15T06:51:55;40.17;;;21.97;;
6193;SDS011;3130;41.564;23.280;2024-02-15T06:54:22;42.23;;;29.63;;
6193;SDS011;3130;41.564;23.280;2024-02-15T06:56:49;47.03;;;35.60;;
6193;SDS011;3130;41.564;23.280;2024-02-15T06:59:18;42.93;;;32.23;;
6193;SDS011;3130;41.564;23.280;2024-02-15T07:01:47;36.93;;;25.50;;
6193;SDS011;3130;41.564;23.280;2024-02-15T07:04:14;31.93;;;20.73;;
6193;SDS011;3130;41.564;23.280;2024-02-15T07:06:41;26.03;;;18.50;;
6193;SDS011;3130;41.564;23.280;2024-02-15T07:09:10;31.57;;;23.37;;
6193;SDS011;3130;41.564;23.280;2024-02-15T07:11:37;19.00;;;12.67;;
6193;SDS011;3130;41.564;23.280;2024-02-15T07:14:04;12.03;;;9.77;;
6193;SDS011;3130;41.564;23.280;2024-02-15T07:16:33;15.20;;;10.47;;
6193;SDS011;3130;41.564;23.280;2024-02-15T07:19:00;12.60;;;9.90;;
6193;SDS011;3130;41.564;23.280;2024-02-15T07:21:28;10.73;;;8.93;;
6193;SDS011;3130;41.564;23.280;2024-02-15T07:23:56;13.43;;;10.73;;
6193;SDS011;3130;41.564;23.280;2024-02-15T07:26:24;12.60;;;9.57;;
6193;SDS011;3130;41.564;23.280;2024-02-15T07:28:51;10.80;;;9.27;;
6193;SDS011;3130;41.564;23.280;2024-02-15T07:31:19;15.60;;;10.83;;
6193;SDS011;3130;41.564;23.280;2024-02-15T07:33:49;13.17;;;9.90;;
6193;SDS011;3130;41.564;23.280;2024-02-15T07:36:18;14.23;;;9.57;;
6193;SDS011;3130;41.564;23.280;2024-02-15T07:38:47;11.00;;;8.53;;
6193;SDS011;3130;41.564;23.280;2024-02-15T07:41:15;11.90;;;8.70;;
6193;SDS011;3130;41.564;23.280;2024-02-15T07:43:43;10.57;;;8.67;;
6193;SDS011;3130;41.564;23.280;2024-02-15T07:46:12;10.90;;;8.23;;
6193;SDS011;3130;41.564;23.280;2024-02-15T07:48:41;10.57;;;8.93;;
6193;SDS011;3130;41.564;23.280;2024-02-15T07:51:12;10.40;;;8.83;;
6193;SDS011;3130;41.564;23.280;2024-02-15T07:53:40;10.27;;;8.73;;
6193;SDS011;3130;41.564;23.280;2024-02-15T07:56:08;11.67;;;8.70;;
6193;SDS011;3130;41.564;23.280;2024-02-15T07:58:37;13.60;;;11.70;;
6193;SDS011;3130;41.564;23.280;2024-02-15T08:01:04;14.97;;;11.77;;
6193;SDS011;3130;41.564;23.280;2024-02-15T08:03:32;12.53;;;10.10;;
6193;SDS011;3130;41.564;23.280;2024-02-15T08:06:00;12.73;;;11.23;;
6193;SDS011;3130;41.564;23.280;2024-02-15T08:08:32;15.57;;;11.43;;
6193;SDS011;3130;41.564;23.280;2024-02-15T08:11:01;12.90;;;11.55;;
6193;SDS011;3130;41.564;23.280;2024-02-15T08:13:28;14.25;;;11.40;;
6193;SDS011;3130;41.564;23.280;2024-02-15T08:15:55;9.35;;;8.05;;
6193;SDS011;3130;41.564;23.280;2024-02-15T08:18:23;10.17;;;9.10;;
6193;SDS011;3130;41.564;23.280;2024-02-15T08:20:51;9.80;;;8.40;;
6193;SDS011;3130;41.564;23.280;2024-02-15T08:23:18;9.87;;;8.20;;
6193;SDS011;3130;41.564;23.280;2024-02-15T08:25:46;9.83;;;8.03;;
6193;SDS011;3130;41.564;23.280;2024-02-15T08:28:18;10.10;;;8.03;;
6193;SDS011;3130;41.564;23.280;2024-02-15T08:30:46;9.80;;;7.63;;
6193;SDS011;3130;41.564;23.280;2024-02-15T08:33:13;13.50;;;8.43;;
6193;SDS011;3130;41.564;23.280;2024-02-15T08:35:40;10.60;;;8.17;;
6193;SDS011;3130;41.564;23.280;2024-02-15T08:38:07;12.70;;;7.60;;
6193;SDS011;3130;41.564;23.280;2024-02-15T08:40:34;9.10;;;7.50;;
6193;SDS011;3130;41.564;23.280;2024-02-15T08:43:02;9.00;;;7.87;;
6193;SDS011;3130;41.564;23.280;2024-02-15T08:45:29;10.90;;;7.87;;
6193;SDS011;3130;41.564;23.280;2024-02-15T08:47:56;13.73;;;9.03;;
6193;SDS011;3130;41.564;23.280;2024-02-15T08:50:23;8.83;;;7.63;;
6193;SDS011;3130;41.564;23.280;2024-02-15T08:52:50;9.07;;;7.83;;
6193;SDS011;3130;41.564;23.280;2024-02-15T08:55:17;9.67;;;7.17;;
6193;SDS011;3130;41.564;23.280;2024-02-15T08:57:49;10.57;;;8.07;;
6193;SDS011;3130;41.564;23.280;2024-02-15T09:00:17;10.87;;;8.47;;
6193;SDS011;3130;41.564;23.280;2024-02-15T09:02:45;11.77;;;9.07;;
6193;SDS011;3130;41.564;23.280;2024-02-15T09:05:12;9.50;;;7.57;;
6193;SDS011;3130;41.564;23.280;2024-02-15T09:07:39;11.67;;;7.53;;
6193;SDS011;3130;41.564;23.280;2024-02-15T09:10:07;10.93;;;7.60;;
6193;SDS011;3130;41.564;23.280;2024-02-15T09:12:35;11.93;;;8.60;;
6193;SDS011;3130;41.564;23.280;2024-02-15T09:15:05;9.77;;;7.77;;
6193;SDS011;3130;41.564;23.280;2024-02-15T09:17:34;11.23;;;7.70;;
6193;SDS011;3130;41.564;23.280;2024-02-15T09:20:06;11.03;;;8.13;;
6193;SDS011;3130;41.564;23.280;2024-02-15T09:22:33;9.70;;;7.23;;
6193;SDS011;3130;41.564;23.280;2024-02-15T09:25:01;12.10;;;8.27;;
6193;SDS011;3130;41.564;23.280;2024-02-15T09:27:28;10.33;;;7.73;;
6193;SDS011;3130;41.564;23.280;2024-02-15T09:29:55;12.40;;;7.23;;
6193;SDS011;3130;41.564;23.280;2024-02-15T09:32:22;9.93;;;6.57;;
6193;SDS011;3130;41.564;23.280;2024-02-15T09:34:51;8.87;;;7.27;;
6193;SDS011;3130;41.564;23.280;2024-02-15T09:37:18;8.40;;;7.07;;
6193;SDS011;3130;41.564;23.280;2024-02-15T09:39:44;11.20;;;7.10;;
6193;SDS011;3130;41.564;23.280;2024-02-15T09:42:11;8.77;;;7.03;;
6193;SDS011;3130;41.564;23.280;2024-02-15T09:44:38;11.00;;;7.60;;
6193;SDS011;3130;41.564;23.280;2024-02-15T09:47:11;8.20;;;6.13;;
6193;SDS011;3130;41.564;23.280;2024-02-15T09:49:40;7.70;;;6.90;;
6193;SDS011;3130;41.564;23.280;2024-02-15T09:52:09;7.87;;;7.07;;
6193;SDS011;3130;41.564;23.280;2024-02-15T09:54:38;10.60;;;6.23;;
6193;SDS011;3130;41.564;23.280;2024-02-15T09:57:05;8.07;;;6.57;;
6193;SDS011;3130;41.564;23.280;2024-02-15T09:59:33;11.77;;;8.37;;
6193;SDS011;3130;41.564;23.280;2024-02-15T10:02:01;10.43;;;7.57;;
6193;SDS011;3130;41.564;23.280;2024-02-15T10:04:28;7.57;;;6.37;;
6193;SDS011;3130;41.564;23.280;2024-02-15T10:06:55;8.53;;;6.70;;
6193;SDS011;3130;41.564;23.280;2024-02-15T10:09:25;11.00;;;6.13;;
6193;SDS011;3130;41.564;23.280;2024-02-15T10:11:53;8.27;;;5.37;;
6193;SDS011;3130;41.564;23.280;2024-02-15T10:14:21;12.53;;;6.40;;
6193;SDS011;3130;41.564;23.280;2024-02-15T10:16:48;7.40;;;5.93;;
6193;SDS011;3130;41.564;23.280;2024-02-15T10:19:15;7.57;;;5.47;;
6193;SDS011;3130;41.564;23.280;2024-02-15T10:21:44;8.57;;;6.00;;
6193;SDS011;3130;41.564;23.280;2024-02-15T10:24:11;7.10;;;5.50;;
6193;SDS011;3130;41.564;23.280;2024-02-15T10:26:39;8.03;;;6.13;;
6193;SDS011;3130;41.564;23.280;2024-02-15T10:29:06;7.40;;;5.97;;
6193;SDS011;3130;41.564;23.280;2024-02-15T10:31:37;9.50;;;6.67;;
6193;SDS011;3130;41.564;23.280;2024-02-15T10:34:05;6.60;;;5.90;;
6193;SDS011;3130;41.564;23.280;2024-02-15T10:36:32;7.97;;;5.20;;
6193;SDS011;3130;41.564;23.280;2024-02-15T10:39:12;6.70;;;5.63;;
6193;SDS011;3130;41.564;23.280;2024-02-15T10:41:45;6.03;;;5.20;;
6193;SDS011;3130;41.564;23.280;2024-02-15T10:44:15;10.50;;;6.77;;
6193;SDS011;3130;41.564;23.280;2024-02-15T10:46:44;8.57;;;6.40;;
6193;SDS011;3130;41.564;23.280;2024-02-15T10:49:12;7.73;;;5.67;;
6193;SDS011;3130;41.564;23.280;2024-02-15T10:51:43;6.97;;;4.83;;
6193;SDS011;3130;41.564;23.280;2024-02-15T10:54:12;7.30;;;5.90;;
6193;SDS011;3130;41.564;23.280;2024-02-15T10:56:42;6.97;;;5.37;;
6193;SDS011;3130;41.564;23.280;2024-02-15T10:59:17;6.03;;;4.70;;
6193;SDS011;3130;41.564;23.280;2024-02-15T11:01:45;5.70;;;5.20;;
6193;SDS011;3130;41.564;23.280;2024-02-15T11:04:15;6.40;;;5.80;;
6193;SDS011;3130;41.564;23.280;2024-02-15T11:06:54;8.73;;;5.23;;
6193;SDS011;3130;41.564;23.280;2024-02-15T11:09:51;7.23;;;5.43;;
6193;SDS011;3130;41.564;23.280;2024-02-15T11:12:29;6.93;;;5.83;;
6193;SDS011;3130;41.564;23.280;2024-02-15T11:15:09;5.40;;;4.90;;
6193;SDS011;3130;41.564;23.280;2024-02-15T11:17:50;7.07;;;6.03;;
6193;SDS011;3130;41.564;23.280;2024-02-15T11:23:07;6.97;;;5.00;;
6193;SDS011;3130;41.564;23.280;2024-02-15T11:25:35;5.93;;;4.97;;
6193;SDS011;3130;41.564;23.280;2024-02-15T11:30:47;9.67;;;5.20;;
6193;SDS011;3130;41.564;23.280;2024-02-15T11:33:27;8.93;;;5.93;;
6193;SDS011;3130;41.564;23.280;2024-02-15T11:36:01;5.17;;;4.60;;
6193;SDS011;3130;41.564;23.280;2024-02-15T11:38:32;7.53;;;5.70;;
6193;SDS011;3130;41.564;23.280;2024-02-15T11:41:06;7.27;;;5.33;;
6193;SDS011;3130;41.564;23.280;2024-02-15T11:43:51;9.93;;;5.30;;
6193;SDS011;3130;41.564;23.280;2024-02-15T11:46:28;6.37;;;5.07;;
6193;SDS011;3130;41.564;23.280;2024-02-15T11:48:57;8.53;;;6.13;;
6193;SDS011;3130;41.564;23.280;2024-02-15T11:51:26;7.53;;;5.77;;
6193;SDS011;3130;41.564;23.280;2024-02-15T11:54:04;7.70;;;5.73;;
6193;SDS011;3130;41.564;23.280;2024-02-15T11:56:55;4.63;;;4.13;;
6193;SDS011;3130;41.564;23.280;2024-02-15T11:59:39;8.10;;;5.70;;
6193;SDS011;3130;41.564;23.280;2024-02-15T12:02:19;5.77;;;4.97;;
6193;SDS011;3130;41.564;23.280;2024-02-15T12:05:04;5.47;;;4.90;;
6193;SDS011;3130;41.564;23.280;2024-02-15T12:07:47;8.20;;;5.47;;
6193;SDS011;3130;41.564;23.280;2024-02-15T12:10:31;6.77;;;5.93;;
6193;SDS011;3130;41.564;23.280;2024-02-15T12:15:57;7.23;;;5.47;;
6193;SDS011;3130;41.564;23.280;2024-02-15T12:16:23;5.83;;;5.23;;
6193;SDS011;3130;41.564;23.280;2024-02-15T12:19:09;9.17;;;5.03;;
6193;SDS011;3130;41.564;23.280;2024-02-15T12:21:36;8.67;;;4.73;;
6193;SDS011;3130;41.564;23.280;2024-02-15T12:24:07;7.40;;;5.13;;
6193;SDS011;3130;41.564;23.280;2024-02-15T12:26:33;7.00;;;5.37;;
6193;SDS011;3130;41.564;23.280;2024-02-15T12:29:01;6.40;;;4.53;;
6193;SDS011;3130;41.564;23.280;2024-02-15T12:31:28;9.03;;;5.43;;
6193;SDS011;3130;41.564;23.280;2024-02-15T12:34:01;5.37;;;4.67;;
6193;SDS011;3130;41.564;23.280;2024-02-15T12:36:33;5.33;;;4.83;;
6193;SDS011;3130;41.564;23.280;2024-02-15T12:39:02;6.83;;;5.07;;
6193;SDS011;3130;41.564;23.280;2024-02-15T12:41:36;6.70;;;5.10;;
6193;SDS011;3130;41.564;23.280;2024-02-15T12:44:03;7.53;;;5.10;;
6193;SDS011;3130;41.564;23.280;2024-02-15T12:46:30;5.10;;;4.63;;
6193;SDS011;3130;41.564;23.280;2024-02-15T12:49:07;6.23;;;4.83;;
6193;SDS011;3130;41.564;23.280;2024-02-15T12:51:40;6.30;;;4.60;;
6193;SDS011;3130;41.564;23.280;2024-02-15T12:54:18;5.57;;;4.50;;
6193;SDS011;3130;41.564;23.280;2024-02-15T12:56:46;5.73;;;5.13;;
6193;SDS011;3130;41.564;23.280;2024-02-15T12:59:13;6.23;;;5.30;;
6193;SDS011;3130;41.564;23.280;2024-02-15T13:01:41;6.50;;;4.27;;
6193;SDS011;3130;41.564;23.280;2024-02-15T13:04:08;5.97;;;4.40;;
6193;SDS011;3130;41.564;23.280;2024-02-15T13:06:35;5.20;;;4.70;;
6193;SDS011;3130;41.564;23.280;2024-02-15T13:09:05;5.97;;;5.37;;
6193;SDS011;3130;41.564;23.280;2024-02-15T13:11:32;4.83;;;4.37;;
6193;SDS011;3130;41.564;23.280;2024-02-15T13:13:59;8.03;;;4.80;;
6193;SDS011;3130;41.564;23.280;2024-02-15T13:16:27;7.97;;;5.47;;
6193;SDS011;3130;41.564;23.280;2024-02-15T13:18:56;6.53;;;4.87;;
6193;SDS011;3130;41.564;23.280;2024-02-15T13:21:24;6.53;;;5.03;;
6193;SDS011;3130;41.564;23.280;2024-02-15T13:23:55;6.93;;;5.77;;
6193;SDS011;3130;41.564;23.280;2024-02-15T13:26:23;4.63;;;3.73;;
6193;SDS011;3130;41.564;23.280;2024-02-15T13:28:51;5.90;;;4.33;;
6193;SDS011;3130;41.564;23.280;2024-02-15T13:31:18;4.70;;;4.30;;
6193;SDS011;3130;41.564;23.280;2024-02-15T13:33:46;11.57;;;5.83;;
6193;SDS011;3130;41.564;23.280;2024-02-15T13:36:13;7.67;;;5.23;;
6193;SDS011;3130;41.564;23.280;2024-02-15T13:38:40;5.20;;;4.47;;
6193;SDS011;3130;41.564;23.280;2024-02-15T13:41:07;5.43;;;4.80;;
6193;SDS011;3130;41.564;23.280;2024-02-15T13:43:36;6.27;;;5.53;;
6193;SDS011;3130;41.564;23.280;2024-02-15T13:46:04;7.10;;;5.13;;
6193;SDS011;3130;41.564;23.280;2024-02-15T13:48:31;5.20;;;4.40;;
6193;SDS011;3130;41.564;23.280;2024-02-15T13:50:58;4.67;;;3.90;;
6193;SDS011;3130;41.564;23.280;2024-02-15T13:53:24;5.30;;;4.30;;
6193;SDS011;3130;41.564;23.280;2024-02-15T13:55:53;6.50;;;5.10;;
6193;SDS011;3130;41.564;23.280;2024-02-15T13:58:20;6.23;;;5.07;;
6193;SDS011;3130;41.564;23.280;2024-02-15T14:00:49;5.97;;;5.37;;
6193;SDS011;3130;41.564;23.280;2024-02-15T14:03:17;5.27;;;4.57;;
6193;SDS011;3130;41.564;23.280;2024-02-15T14:05:47;4.50;;;4.10;;
6193;SDS011;3130;41.564;23.280;2024-02-15T14:08:15;11.13;;;5.53;;
6193;SDS011;3130;41.564;23.280;2024-02-15T14:10:42;7.73;;;5.33;;
6193;SDS011;3130;41.564;23.280;2024-02-15T14:13:09;5.77;;;5.07;;
6193;SDS011;3130;41.564;23.280;2024-02-15T14:15:36;6.53;;;3.87;;
6193;SDS011;3130;41.564;23.280;2024-02-15T14:18:08;7.80;;;5.00;;
6193;SDS011;3130;41.564;23.280;2024-02-15T14:20:35;7.43;;;5.07;;
6193;SDS011;3130;41.564;23.280;2024-02-15T14:23:03;7.53;;;5.77;;
6193;SDS011;3130;41.564;23.280;2024-02-15T14:25:31;9.70;;;6.27;;
6193;SDS011;3130;41.564;23.280;2024-02-15T14:27:58;9.93;;;6.57;;
6193;SDS011;3130;41.564;23.280;2024-02-15T14:30:25;7.17;;;5.40;;
6193;SDS011;3130;41.564;23.280;2024-02-15T14:33:11;6.77;;;5.57;;
6193;SDS011;3130;41.564;23.280;2024-02-15T14:35:40;7.13;;;5.70;;
6193;SDS011;3130;41.564;23.280;2024-02-15T14:38:08;7.90;;;4.77;;
6193;SDS011;3130;41.564;23.280;2024-02-15T14:40:36;10.30;;;6.07;;
6193;SDS011;3130;41.564;23.280;2024-02-15T14:43:04;8.80;;;5.83;;
6193;SDS011;3130;41.564;23.280;2024-02-15T14:45:31;9.17;;;6.50;;
6193;SDS011;3130;41.564;23.280;2024-02-15T14:47:59;8.53;;;5.77;;
6193;SDS011;3130;41.564;23.280;2024-02-15T14:50:28;9.50;;;5.63;;
6193;SDS011;3130;41.564;23.280;2024-02-15T14:52:55;7.23;;;5.63;;
6193;SDS011;3130;41.564;23.280;2024-02-15T14:55:22;10.93;;;6.03;;
6193;SDS011;3130;41.564;23.280;2024-02-15T14:57:49;7.73;;;6.03;;
6193;SDS011;3130;41.564;23.280;2024-02-15T15:00:16;7.50;;;6.60;;
6193;SDS011;3130;41.564;23.280;2024-02-15T15:02:44;10.63;;;6.07;;
6193;SDS011;3130;41.564;23.280;2024-02-15T15:05:11;8.13;;;5.83;;
6193;SDS011;3130;41.564;23.280;2024-02-15T15:07:57;9.97;;;7.73;;
6193;SDS011;3130;41.564;23.280;2024-02-15T15:10:41;13.00;;;7.33;;